Dallas, Texas
Traffic Map
Current Weather Conditions
Dallas, Texas
Broken Clouds
Broken Clouds
78°
Feels Like: 80°
Wind Chill: 78° Ceiling: 1800
Heat Index: 80° Visibility: 10mi
Dew Point: 69° Wind: 13mph
Humidity: 74% Direction: 110° (ESE)
Pressure: 29.98in Gusts: 18mph
Raw Report DataKDAL 191553Z 11011G16KT 10SM BKN018 BKN024 26/21 A2998 RMK AO2 SLP147 T02560206
Traffic Incident Summary
Active as of:
Severity:
Category:
InformationThere was an issue retrieving the traffic information for this location. Please try a different location or try again shortly.
Advertisements
Track Severe Weather on mobile